createdAt,value
2023-05-14T00:01:52.566Z,77.07
2023-05-14T00:04:21.571Z,81.50
2023-05-14T00:06:50.459Z,79.24
2023-05-14T00:09:25.000Z,79.70
2023-05-14T00:11:55.427Z,79.16
2023-05-14T00:14:24.286Z,78.67
2023-05-14T00:16:53.190Z,78.13
2023-05-14T00:19:22.330Z,77.44
2023-05-14T00:21:51.749Z,78.25
2023-05-14T00:24:20.901Z,78.65
2023-05-14T00:26:50.263Z,79.07
2023-05-14T00:29:20.805Z,78.20
2023-05-14T00:31:49.820Z,77.67
2023-05-14T00:34:19.205Z,77.22
2023-05-14T00:36:48.502Z,77.08
2023-05-14T00:39:17.830Z,76.97
2023-05-14T00:41:46.519Z,76.78
2023-05-14T00:44:18.439Z,79.86
2023-05-14T00:46:48.885Z,81.40
2023-05-14T00:49:19.819Z,79.19
2023-05-14T00:51:48.640Z,78.28
2023-05-14T00:54:19.706Z,77.67
2023-05-14T00:56:49.574Z,77.42
2023-05-14T00:59:18.450Z,77.54
2023-05-14T01:01:49.154Z,77.01
2023-05-14T01:04:18.306Z,76.88
2023-05-14T01:06:57.204Z,76.85
2023-05-14T01:09:34.769Z,76.67
2023-05-14T01:12:13.390Z,76.64
2023-05-14T01:14:46.797Z,76.84
2023-05-14T01:17:20.868Z,77.01
2023-05-14T01:19:52.367Z,76.83
2023-05-14T01:22:23.036Z,75.21
2023-05-14T01:24:51.876Z,75.64
2023-05-14T01:27:39.358Z,76.82
2023-05-14T01:30:15.393Z,77.15
2023-05-14T01:32:46.461Z,76.71
2023-05-14T01:35:16.025Z,76.55
2023-05-14T01:37:47.975Z,76.37
2023-05-14T01:40:17.193Z,76.15
2023-05-14T01:42:46.974Z,76.39
2023-05-14T01:45:16.441Z,76.09
2023-05-14T01:47:45.799Z,75.79
2023-05-14T01:50:14.645Z,75.92
2023-05-14T01:52:45.173Z,75.68
2023-05-14T01:55:14.012Z,75.56
2023-05-14T01:57:43.161Z,75.44
2023-05-14T02:00:15.299Z,75.72
2023-05-14T02:02:44.509Z,75.57
2023-05-14T02:05:14.123Z,75.42
2023-05-14T02:07:42.946Z,75.41
2023-05-14T02:10:14.166Z,75.79
2023-05-14T02:12:43.116Z,76.12
2023-05-14T02:15:12.825Z,75.83
2023-05-14T02:17:43.453Z,75.73
2023-05-14T02:20:14.843Z,75.49
2023-05-14T02:22:46.098Z,75.38
2023-05-14T02:25:17.106Z,75.48
2023-05-14T02:27:46.301Z,75.63
2023-05-14T02:30:18.220Z,75.48
2023-05-14T02:32:47.277Z,75.54
2023-05-14T02:35:16.653Z,75.33
2023-05-14T02:37:46.181Z,75.58
2023-05-14T02:40:17.941Z,75.11
2023-05-14T02:42:47.982Z,75.19
2023-05-14T02:45:17.179Z,75.21
2023-05-14T02:47:46.121Z,75.05
2023-05-14T02:50:15.104Z,74.72
2023-05-14T02:52:43.964Z,75.01
2023-05-14T02:55:13.222Z,75.15
2023-05-14T02:57:43.680Z,74.89
2023-05-14T03:00:13.949Z,75.45
2023-05-14T03:02:45.210Z,75.32
2023-05-14T03:05:15.692Z,75.10
2023-05-14T03:07:47.834Z,75.10
2023-05-14T03:10:16.734Z,75.36
2023-05-14T03:12:47.485Z,75.35
2023-05-14T03:15:16.614Z,75.64
2023-05-14T03:17:45.370Z,75.62
2023-05-14T03:20:15.287Z,75.44
2023-05-14T03:22:44.636Z,75.46
2023-05-14T03:25:15.924Z,75.31
2023-05-14T03:27:46.242Z,75.31
2023-05-14T03:30:15.796Z,75.52
2023-05-14T03:32:44.740Z,75.33
2023-05-14T03:35:13.743Z,75.03
2023-05-14T03:37:45.052Z,75.01
2023-05-14T03:40:14.607Z,74.96
2023-05-14T03:42:43.618Z,74.80
2023-05-14T03:45:16.485Z,74.75
2023-05-14T03:47:48.510Z,75.85
2023-05-14T03:50:18.413Z,76.05
2023-05-14T03:52:47.274Z,75.43
2023-05-14T03:55:18.970Z,75.06
2023-05-14T03:57:47.829Z,75.01
2023-05-14T04:00:18.774Z,74.46
2023-05-14T04:02:48.072Z,74.49
2023-05-14T04:05:17.183Z,74.81
2023-05-14T04:07:46.541Z,74.63
2023-05-14T04:10:15.923Z,74.73
2023-05-14T04:12:44.815Z,74.29
2023-05-14T04:15:13.993Z,74.22
2023-05-14T04:17:44.201Z,74.03
2023-05-14T04:20:13.254Z,73.78
2023-05-14T04:22:42.426Z,73.49
2023-05-14T04:25:12.496Z,73.19
2023-05-14T04:27:41.329Z,73.24
2023-05-14T04:30:12.651Z,73.24
2023-05-14T04:32:41.590Z,73.41
2023-05-14T04:35:14.059Z,73.44
2023-05-14T04:37:43.430Z,73.26
2023-05-14T04:40:12.844Z,73.29
2023-05-14T04:42:44.682Z,72.71
2023-05-14T04:45:17.750Z,71.57
2023-05-14T04:47:47.798Z,67.92
2023-05-14T04:50:18.594Z,65.83
2023-05-14T04:52:47.198Z,64.61
2023-05-14T04:55:16.429Z,62.54
2023-05-14T04:57:45.381Z,61.18
2023-05-14T05:00:17.917Z,62.57
2023-05-14T05:02:46.931Z,66.61
2023-05-14T05:05:17.893Z,68.79
2023-05-14T05:07:46.628Z,70.95
2023-05-14T05:10:15.493Z,71.24
2023-05-14T05:12:44.624Z,71.38
2023-05-14T05:15:13.799Z,70.80
2023-05-14T05:17:43.531Z,68.78
2023-05-14T05:20:13.960Z,66.23
2023-05-14T05:22:44.326Z,62.32
2023-05-14T05:25:13.416Z,59.47
2023-05-14T05:27:42.280Z,59.71
2023-05-14T05:30:12.205Z,62.10
2023-05-14T05:32:41.217Z,62.02
2023-05-14T05:35:10.814Z,59.02
2023-05-14T05:37:39.653Z,56.38
2023-05-14T05:40:17.900Z,54.11
2023-05-14T05:42:46.662Z,53.15
2023-05-14T05:45:15.501Z,54.80
2023-05-14T05:47:44.413Z,55.92
2023-05-14T05:50:13.660Z,59.16
2023-05-14T05:52:42.388Z,61.62
2023-05-14T05:55:12.496Z,63.54
2023-05-14T05:57:41.429Z,65.49
2023-05-14T06:00:14.360Z,66.64
2023-05-14T06:02:43.567Z,66.36
2023-05-14T06:05:12.884Z,62.53
2023-05-14T06:07:41.990Z,57.29
2023-05-14T06:10:13.103Z,54.02
2023-05-14T06:12:42.118Z,61.40
2023-05-14T06:15:12.568Z,57.91
2023-05-14T06:17:41.938Z,55.10
2023-05-14T06:20:14.280Z,54.35
2023-05-14T06:22:43.361Z,51.77
2023-05-14T06:25:14.277Z,49.58
2023-05-14T06:27:46.387Z,47.22
2023-05-14T06:30:18.970Z,53.96
2023-05-14T06:32:47.907Z,56.40
2023-05-14T06:35:16.517Z,53.86
2023-05-14T06:37:44.918Z,53.79
2023-05-14T06:40:17.095Z,64.20
2023-05-14T06:42:45.981Z,64.67
2023-05-14T06:45:14.624Z,60.03
2023-05-14T06:47:43.245Z,55.28
2023-05-14T06:50:13.961Z,61.91
2023-05-14T06:52:43.837Z,61.08
2023-05-14T06:55:12.435Z,57.19
2023-05-14T06:57:42.348Z,58.43
2023-05-14T07:00:12.754Z,54.20
2023-05-14T07:02:41.811Z,58.21
2023-05-14T07:05:12.377Z,55.32
2023-05-14T07:07:41.726Z,57.06
2023-05-14T07:10:10.538Z,51.66
2023-05-14T07:12:39.564Z,53.45
2023-05-14T07:15:12.345Z,52.56
2023-05-14T07:17:41.280Z,55.67
2023-05-14T07:20:11.909Z,51.96
2023-05-14T07:22:40.349Z,53.25
2023-05-14T07:25:09.961Z,49.89
2023-05-14T07:27:39.004Z,52.05
2023-05-14T07:30:10.984Z,55.18
2023-05-14T07:32:39.666Z,53.04
2023-05-14T07:35:09.888Z,50.45
2023-05-14T07:37:39.229Z,52.49
2023-05-14T07:40:14.072Z,52.32
2023-05-14T07:42:42.899Z,49.94
2023-05-14T07:45:14.650Z,56.12
2023-05-14T07:47:44.218Z,53.12
2023-05-14T07:50:14.012Z,53.12
2023-05-14T07:52:43.906Z,51.18
2023-05-14T07:55:14.652Z,51.51
2023-05-14T07:57:43.400Z,49.54
2023-05-14T08:00:17.196Z,53.77
2023-05-14T08:02:46.353Z,54.18
2023-05-14T08:05:15.770Z,51.23
2023-05-14T08:07:45.077Z,49.23
2023-05-14T08:10:14.079Z,52.03
2023-05-14T08:12:42.937Z,49.72
2023-05-14T08:15:14.332Z,48.06
2023-05-14T08:17:43.330Z,47.15
2023-05-14T08:20:13.712Z,49.25
2023-05-14T08:22:42.442Z,49.17
2023-05-14T08:25:13.187Z,49.69
2023-05-14T08:27:42.212Z,50.37
2023-05-14T08:30:14.115Z,47.43
2023-05-14T08:32:46.421Z,45.38
2023-05-14T08:35:15.388Z,47.54
2023-05-14T08:37:44.585Z,52.34
2023-05-14T08:40:14.339Z,47.80
2023-05-14T08:42:47.498Z,49.37
2023-05-14T08:45:22.054Z,46.83
2023-05-14T08:47:52.997Z,46.84
2023-05-14T08:50:23.782Z,47.17
2023-05-14T08:52:55.073Z,50.19
2023-05-14T08:55:26.091Z,50.28
2023-05-14T08:57:54.894Z,46.33
2023-05-14T09:00:28.482Z,48.13
2023-05-14T09:02:57.835Z,47.42
2023-05-14T09:05:27.185Z,46.05
2023-05-14T09:07:55.723Z,47.38
2023-05-14T09:10:25.504Z,43.54
2023-05-14T09:12:54.705Z,43.33
2023-05-14T09:15:29.905Z,43.62
2023-05-14T09:17:59.658Z,42.89
2023-05-14T09:20:29.090Z,39.78
2023-05-14T09:22:57.981Z,38.99
2023-05-14T09:25:28.896Z,37.40
2023-05-14T09:27:59.214Z,40.63
2023-05-14T09:30:29.256Z,39.99
2023-05-14T09:32:59.335Z,41.97
2023-05-14T09:35:27.951Z,38.27
2023-05-14T09:37:57.567Z,39.14
2023-05-14T09:40:26.862Z,38.51
2023-05-14T09:42:56.339Z,37.20
2023-05-14T09:45:25.699Z,37.44
2023-05-14T09:47:57.387Z,38.47
2023-05-14T09:50:26.667Z,35.85
2023-05-14T09:52:57.054Z,35.41
2023-05-14T09:55:27.777Z,36.20
2023-05-14T09:57:57.750Z,36.50
2023-05-14T10:00:29.731Z,34.40
2023-05-14T10:03:00.545Z,34.94
2023-05-14T10:05:30.318Z,35.23
2023-05-14T10:08:02.268Z,35.79
2023-05-14T10:10:31.919Z,34.27
2023-05-14T10:13:07.448Z,34.60
2023-05-14T10:15:44.569Z,37.31
2023-05-14T10:18:24.299Z,39.37
2023-05-14T10:21:05.421Z,39.46
2023-05-14T10:23:34.125Z,40.63
2023-05-14T10:26:04.320Z,37.76
2023-05-14T10:28:33.989Z,44.41
2023-05-14T10:31:03.188Z,37.64
2023-05-14T10:33:51.128Z,43.12
2023-05-14T10:36:23.508Z,35.49
2023-05-14T10:38:58.799Z,37.68
2023-05-14T10:41:28.247Z,37.12
2023-05-14T10:44:00.893Z,39.06
2023-05-14T10:46:30.278Z,38.43
2023-05-14T10:49:01.028Z,35.67
2023-05-14T10:51:30.211Z,44.23
2023-05-14T10:54:01.942Z,37.34
2023-05-14T10:56:30.830Z,32.76
2023-05-14T10:59:01.721Z,33.02
2023-05-14T11:01:30.642Z,31.97
2023-05-14T11:04:00.582Z,30.96
2023-05-14T11:06:29.871Z,28.50
2023-05-14T11:09:02.638Z,29.85
2023-05-14T11:11:35.168Z,29.93
2023-05-14T11:14:04.275Z,30.88
2023-05-14T11:16:33.878Z,38.53
2023-05-14T11:19:07.427Z,27.71
2023-05-14T11:21:37.700Z,29.78
2023-05-14T11:24:09.116Z,31.68
2023-05-14T11:26:37.667Z,31.12
2023-05-14T11:29:07.176Z,32.53
2023-05-14T11:31:36.707Z,30.79
2023-05-14T11:34:10.235Z,34.14
2023-05-14T11:36:39.269Z,26.81
2023-05-14T11:39:08.434Z,26.94
2023-05-14T11:41:37.107Z,33.64
2023-05-14T11:44:09.510Z,31.85
2023-05-14T11:46:38.785Z,32.78
2023-05-14T11:49:09.166Z,31.15
2023-05-14T11:51:38.490Z,29.65
2023-05-14T11:54:07.566Z,33.69
2023-05-14T11:56:36.695Z,29.71
2023-05-14T11:59:06.004Z,29.97
2023-05-14T12:01:38.255Z,28.75
2023-05-14T12:04:09.573Z,28.90
2023-05-14T12:06:43.414Z,28.11
2023-05-14T12:09:17.824Z,27.48
2023-05-14T12:11:47.250Z,28.95
2023-05-14T12:14:21.582Z,34.01
2023-05-14T12:16:51.744Z,29.70
2023-05-14T12:19:23.443Z,30.07
2023-05-14T12:21:53.688Z,29.85
2023-05-14T12:24:22.340Z,30.26
2023-05-14T12:26:52.798Z,29.90
2023-05-14T12:29:22.127Z,28.89
2023-05-14T12:31:51.630Z,31.00
2023-05-14T12:34:20.144Z,29.87
2023-05-14T12:36:53.212Z,29.40
2023-05-14T12:39:24.023Z,32.11
2023-05-14T12:41:53.256Z,30.14
2023-05-14T12:44:22.610Z,30.68
2023-05-14T12:46:55.372Z,31.77
2023-05-14T12:49:26.211Z,30.38
2023-05-14T12:52:07.848Z,31.83
2023-05-14T12:54:45.564Z,35.87
2023-05-14T12:57:14.673Z,35.90
2023-05-14T12:59:44.615Z,35.27
2023-05-14T13:02:13.617Z,35.30
2023-05-14T13:04:43.808Z,34.80
2023-05-14T13:07:13.035Z,34.99
2023-05-14T13:09:41.580Z,33.32
2023-05-14T13:12:12.234Z,34.97
2023-05-14T13:14:41.088Z,31.55
2023-05-14T13:17:10.080Z,31.66
2023-05-14T13:19:39.170Z,31.06
2023-05-14T13:22:07.931Z,32.35
2023-05-14T13:24:37.174Z,37.05
2023-05-14T13:27:06.905Z,31.50
2023-05-14T13:29:36.768Z,29.08
2023-05-14T13:32:08.913Z,37.13
2023-05-14T13:34:37.347Z,32.91
2023-05-14T13:37:06.379Z,28.98
2023-05-14T13:39:34.702Z,28.26
2023-05-14T13:42:05.769Z,28.71
2023-05-14T13:44:36.485Z,27.98
2023-05-14T13:47:07.305Z,31.72
2023-05-14T13:49:35.835Z,29.70
2023-05-14T13:52:04.479Z,29.70
2023-05-14T13:54:33.534Z,30.10
2023-05-14T13:57:02.206Z,32.27
2023-05-14T13:59:31.165Z,31.02
2023-05-14T14:02:01.105Z,33.81
2023-05-14T14:04:31.687Z,33.00
2023-05-14T14:07:00.968Z,32.65
2023-05-14T14:09:29.411Z,32.78
2023-05-14T14:11:58.301Z,32.78
2023-05-14T14:14:26.711Z,37.29
2023-05-14T14:16:55.746Z,33.34
2023-05-14T14:19:26.486Z,32.94
2023-05-14T14:21:56.579Z,31.14
2023-05-14T14:24:26.136Z,32.88
2023-05-14T14:26:54.956Z,31.60
2023-05-14T14:29:23.985Z,31.36
2023-05-14T14:31:54.715Z,32.06
2023-05-14T14:34:23.485Z,32.07
2023-05-14T14:36:52.857Z,34.37
2023-05-14T14:39:25.776Z,32.18
2023-05-14T14:41:58.682Z,30.87
2023-05-14T14:44:27.822Z,37.05
2023-05-14T14:46:57.369Z,32.27
2023-05-14T14:49:26.708Z,30.80
2023-05-14T14:51:56.625Z,31.89
2023-05-14T14:54:27.067Z,34.26
2023-05-14T14:56:55.776Z,32.40
2023-05-14T14:59:24.710Z,32.56
2023-05-14T15:01:53.776Z,32.10
2023-05-14T15:04:22.263Z,31.90
2023-05-14T15:06:51.011Z,35.56
2023-05-14T15:09:19.856Z,36.33
2023-05-14T15:11:53.265Z,36.54
2023-05-14T15:14:22.287Z,36.42
2023-05-14T15:16:51.262Z,37.26
2023-05-14T15:19:20.252Z,37.05
2023-05-14T15:21:51.313Z,39.57
2023-05-14T15:24:20.288Z,38.68
2023-05-14T15:26:52.078Z,39.54
2023-05-14T15:29:22.491Z,37.46
2023-05-14T15:31:52.943Z,38.87
2023-05-14T15:34:22.777Z,37.22
2023-05-14T15:36:51.531Z,38.48
2023-05-14T15:39:20.258Z,36.77
2023-05-14T15:41:50.627Z,36.88
2023-05-14T15:44:19.211Z,38.77
2023-05-14T15:46:47.951Z,35.86
2023-05-14T15:49:16.882Z,37.55
2023-05-14T15:51:45.646Z,36.82
2023-05-14T15:54:14.771Z,36.95
2023-05-14T15:56:43.490Z,38.09
2023-05-14T15:59:14.984Z,36.74
2023-05-14T16:01:43.522Z,38.28
2023-05-14T16:04:12.199Z,36.53
2023-05-14T16:06:42.014Z,36.05
2023-05-14T16:09:10.659Z,36.53
2023-05-14T16:11:40.623Z,36.75
2023-05-14T16:14:08.967Z,35.51
2023-05-14T16:16:41.816Z,35.76
2023-05-14T16:19:11.105Z,39.51
2023-05-14T16:21:40.186Z,41.73
2023-05-14T16:24:12.955Z,41.14
2023-05-14T16:26:41.836Z,42.83
2023-05-14T16:29:10.770Z,42.24
2023-05-14T16:31:40.861Z,43.97
2023-05-14T16:34:09.809Z,43.75
2023-05-14T16:36:41.364Z,44.09
2023-05-14T16:39:13.641Z,44.21
2023-05-14T16:41:43.572Z,42.94
2023-05-14T16:44:12.217Z,43.48
2023-05-14T16:46:42.455Z,42.47
2023-05-14T16:49:11.224Z,44.07
2023-05-14T16:51:43.156Z,43.40
2023-05-14T16:54:11.920Z,46.10
2023-05-14T16:56:40.475Z,44.82
2023-05-14T16:59:08.923Z,44.04
2023-05-14T17:01:43.633Z,45.13
2023-05-14T17:04:12.324Z,43.26
2023-05-14T17:06:41.375Z,44.12
2023-05-14T17:09:09.963Z,43.47
2023-05-14T17:11:38.794Z,42.04
2023-05-14T17:14:08.040Z,45.24
2023-05-14T17:16:39.268Z,45.32
2023-05-14T17:19:09.255Z,43.89
2023-05-14T17:21:39.225Z,40.41
2023-05-14T17:24:08.724Z,43.12
2023-05-14T17:26:39.327Z,44.71
2023-05-14T17:29:10.943Z,42.81
2023-05-14T17:31:39.882Z,42.17
2023-05-14T17:34:09.918Z,44.62
2023-05-14T17:36:38.560Z,42.88
2023-05-14T17:39:07.207Z,43.49
2023-05-14T17:41:37.191Z,44.88
2023-05-14T17:44:08.421Z,45.35
2023-05-14T17:46:38.125Z,45.96
2023-05-14T17:49:07.467Z,42.99
2023-05-14T17:51:37.640Z,44.41
2023-05-14T17:54:07.138Z,43.32
2023-05-14T17:56:38.260Z,45.77
2023-05-14T17:59:07.161Z,44.56
2023-05-14T18:01:35.935Z,44.74
2023-05-14T18:04:04.388Z,47.03
2023-05-14T18:06:33.204Z,43.50
2023-05-14T18:09:04.728Z,43.83
2023-05-14T18:11:34.205Z,45.63
2023-05-14T18:14:03.087Z,44.11
2023-05-14T18:16:32.070Z,44.49
2023-05-14T18:19:01.654Z,45.89
2023-05-14T18:21:30.381Z,48.03
2023-05-14T18:23:59.482Z,45.83
2023-05-14T18:26:32.180Z,47.60
2023-05-14T18:29:02.752Z,44.04
2023-05-14T18:31:31.835Z,45.49
2023-05-14T18:34:00.552Z,44.92
2023-05-14T18:36:29.259Z,43.52
2023-05-14T18:38:58.029Z,47.44
2023-05-14T18:41:28.818Z,45.91
2023-05-14T18:43:58.195Z,47.08
2023-05-14T18:46:27.993Z,44.60
2023-05-14T18:48:57.823Z,44.61
2023-05-14T18:51:26.603Z,45.87
2023-05-14T18:53:55.653Z,45.86
2023-05-14T18:56:25.676Z,45.03
2023-05-14T18:58:55.915Z,46.67
2023-05-14T19:01:25.749Z,50.39
2023-05-14T19:04:01.316Z,45.83
2023-05-14T19:06:32.545Z,45.20
2023-05-14T19:09:01.653Z,46.96
2023-05-14T19:11:33.837Z,49.29
2023-05-14T19:14:06.323Z,47.94
2023-05-14T19:16:35.252Z,49.62
2023-05-14T19:19:05.508Z,47.71
2023-05-14T19:21:36.523Z,48.85
2023-05-14T19:24:05.910Z,48.64
2023-05-14T19:26:34.593Z,51.97
2023-05-14T19:29:04.456Z,47.95
2023-05-14T19:31:33.332Z,45.72
2023-05-14T19:34:04.591Z,48.93
2023-05-14T19:36:35.690Z,48.48
2023-05-14T19:39:04.797Z,48.51
2023-05-14T19:41:36.261Z,46.17
2023-05-14T19:44:06.938Z,47.35
2023-05-14T19:46:36.131Z,48.54
2023-05-14T19:49:08.739Z,47.32
2023-05-14T19:51:49.228Z,47.25
2023-05-14T19:54:21.898Z,47.06
2023-05-14T19:56:56.084Z,47.24
2023-05-14T19:59:29.870Z,46.58
2023-05-14T20:01:58.487Z,46.50
2023-05-14T20:04:27.328Z,47.61
2023-05-14T20:09:59.259Z,48.82
2023-05-14T20:12:28.056Z,48.33
2023-05-14T20:15:00.510Z,45.23
2023-05-14T20:17:31.101Z,48.38
2023-05-14T20:20:00.225Z,47.82
2023-05-14T20:22:29.299Z,47.96
2023-05-14T20:24:57.715Z,47.91
2023-05-14T20:27:27.754Z,47.66
2023-05-14T20:29:57.662Z,47.79
2023-05-14T20:32:26.804Z,47.76
2023-05-14T20:34:55.471Z,47.99
2023-05-14T20:37:25.582Z,47.94
2023-05-14T20:39:54.442Z,48.22
2023-05-14T20:42:23.606Z,48.59
2023-05-14T20:44:53.673Z,48.75
2023-05-14T20:47:29.363Z,48.97
2023-05-14T20:49:58.635Z,48.97
2023-05-14T20:52:27.550Z,49.38
2023-05-14T20:54:58.791Z,49.49
2023-05-14T20:57:30.636Z,49.66
2023-05-14T21:00:00.427Z,49.82
2023-05-14T21:02:30.750Z,49.70
2023-05-14T21:04:59.345Z,53.78
2023-05-14T21:07:28.877Z,52.30
2023-05-14T21:09:57.745Z,51.94
2023-05-14T21:12:26.272Z,51.55
2023-05-14T21:14:55.606Z,51.44
2023-05-14T21:17:34.673Z,53.40
2023-05-14T21:20:07.481Z,54.23
2023-05-14T21:22:37.427Z,53.09
2023-05-14T21:25:07.225Z,57.50
2023-05-14T21:27:37.525Z,56.01
2023-05-14T21:30:08.889Z,54.69
2023-05-14T21:32:39.014Z,54.91
2023-05-14T21:35:11.801Z,54.27
2023-05-14T21:37:40.976Z,53.56
2023-05-14T21:40:12.418Z,53.53
2023-05-14T21:42:41.422Z,56.64
2023-05-14T21:45:11.595Z,63.75
2023-05-14T21:47:41.881Z,61.50
2023-05-14T21:50:13.963Z,62.27
2023-05-14T21:52:42.707Z,64.22
2023-05-14T21:55:11.863Z,63.77
2023-05-14T21:57:40.689Z,64.96
2023-05-14T22:00:13.312Z,64.19
2023-05-14T22:02:41.948Z,64.39
2023-05-14T22:05:12.493Z,65.96
2023-05-14T22:07:42.007Z,61.23
2023-05-14T22:10:12.438Z,61.87
2023-05-14T22:12:45.126Z,67.09
2023-05-14T22:15:15.133Z,69.33
2023-05-14T22:17:43.815Z,65.08
2023-05-14T22:20:14.746Z,66.91
2023-05-14T22:22:45.651Z,72.97
2023-05-14T22:25:14.591Z,69.81
2023-05-14T22:27:44.332Z,70.38
2023-05-14T22:30:15.813Z,78.86
2023-05-14T22:32:45.895Z,85.88
2023-05-14T22:35:16.305Z,79.15
2023-05-14T22:37:45.093Z,83.84
2023-05-14T22:40:16.484Z,73.82
2023-05-14T22:42:45.584Z,72.21
2023-05-14T22:45:15.189Z,75.67
2023-05-14T22:47:43.968Z,78.76
2023-05-14T22:50:12.753Z,89.49
2023-05-14T22:52:43.110Z,86.76
2023-05-14T22:55:11.918Z,88.32
2023-05-14T22:57:41.016Z,88.71
2023-05-14T23:00:11.382Z,92.80
2023-05-14T23:02:40.498Z,94.45
2023-05-14T23:05:10.697Z,93.21
2023-05-14T23:07:39.734Z,86.20
2023-05-14T23:10:12.818Z,79.87
2023-05-14T23:12:41.871Z,73.91
2023-05-14T23:15:11.882Z,76.37
2023-05-14T23:17:41.515Z,85.90
2023-05-14T23:20:12.827Z,78.66
2023-05-14T23:22:42.639Z,78.24
2023-05-14T23:25:13.274Z,72.26
2023-05-14T23:27:44.718Z,70.71
2023-05-14T23:30:14.629Z,70.07
2023-05-14T23:32:43.374Z,69.53
2023-05-14T23:35:12.257Z,75.99
2023-05-14T23:37:47.538Z,82.50
2023-05-14T23:40:18.604Z,89.34
2023-05-14T23:42:48.008Z,78.61
2023-05-14T23:45:17.017Z,79.97
2023-05-14T23:47:46.389Z,89.03
2023-05-14T23:50:15.125Z,89.93
2023-05-14T23:52:43.881Z,89.16
2023-05-14T23:55:13.435Z,89.51
2023-05-14T23:57:47.142Z,95.15
